createdAt,value
2022-12-26T00:01:45.765Z,20.65
2022-12-26T00:04:50.657Z,21.40
2022-12-26T00:06:59.489Z,21.92
2022-12-26T00:09:26.753Z,21.55
2022-12-26T00:11:54.225Z,21.67
2022-12-26T00:14:20.965Z,23.35
2022-12-26T00:16:48.280Z,23.10
2022-12-26T00:19:15.230Z,22.23
2022-12-26T00:21:42.080Z,22.25
2022-12-26T00:24:11.817Z,22.63
2022-12-26T00:26:38.806Z,20.70
2022-12-26T00:29:06.174Z,21.40
2022-12-26T00:31:34.420Z,22.13
2022-12-26T00:34:01.229Z,21.92
2022-12-26T00:36:33.556Z,21.50
2022-12-26T00:39:04.718Z,20.48
2022-12-26T00:41:32.069Z,20.17
2022-12-26T00:43:59.523Z,19.63
2022-12-26T00:46:27.078Z,19.85
2022-12-26T00:48:54.379Z,18.88
2022-12-26T00:51:21.711Z,19.92
2022-12-26T00:53:48.762Z,18.40
2022-12-26T00:56:16.146Z,20.35
2022-12-26T00:58:43.518Z,20.95
2022-12-26T01:01:18.386Z,19.73
2022-12-26T01:03:46.810Z,20.25
2022-12-26T01:06:14.891Z,19.67
2022-12-26T01:08:42.381Z,19.27
2022-12-26T01:11:12.132Z,19.25
2022-12-26T01:13:39.564Z,18.67
2022-12-26T01:16:08.118Z,18.02
2022-12-26T01:18:35.728Z,19.85
2022-12-26T01:21:05.918Z,18.10
2022-12-26T01:23:32.722Z,19.58
2022-12-26T01:26:15.865Z,21.75
2022-12-26T01:28:48.169Z,20.77
2022-12-26T01:31:15.471Z,21.58
2022-12-26T01:33:43.975Z,21.60
2022-12-26T01:36:11.291Z,22.55
2022-12-26T01:38:38.428Z,21.95
2022-12-26T01:41:17.473Z,23.83
2022-12-26T01:44:00.274Z,22.35
2022-12-26T01:46:44.146Z,23.08
2022-12-26T01:49:21.503Z,23.70
2022-12-26T01:51:57.844Z,23.48
2022-12-26T01:54:38.270Z,22.20
2022-12-26T01:57:17.654Z,23.88
2022-12-26T01:59:46.801Z,22.10
2022-12-26T02:02:15.337Z,22.55
2022-12-26T02:05:08.358Z,23.65
2022-12-26T02:07:38.615Z,21.88
2022-12-26T02:10:13.105Z,20.60
2022-12-26T02:12:41.233Z,21.05
2022-12-26T02:15:11.470Z,21.85
2022-12-26T02:17:39.493Z,22.15
2022-12-26T02:20:24.134Z,21.63
2022-12-26T02:23:06.941Z,22.67
2022-12-26T02:25:46.655Z,22.75
2022-12-26T02:28:37.146Z,21.85
2022-12-26T02:31:40.898Z,23.17
2022-12-26T02:34:33.434Z,23.25
2022-12-26T02:37:45.054Z,23.42
2022-12-26T02:40:46.596Z,22.25
2022-12-26T02:43:23.543Z,24.00
2022-12-26T02:46:29.715Z,22.70
2022-12-26T02:49:16.810Z,23.80
2022-12-26T02:52:25.877Z,23.27
2022-12-26T02:55:28.899Z,20.23
2022-12-26T02:58:40.454Z,20.52
2022-12-26T03:01:36.750Z,21.15
2022-12-26T03:04:27.683Z,20.70
2022-12-26T03:07:17.126Z,20.75
2022-12-26T03:10:04.964Z,20.77
2022-12-26T03:13:02.424Z,20.85
2022-12-26T03:15:53.015Z,21.98
2022-12-26T03:18:57.962Z,20.92
2022-12-26T03:21:12.697Z,19.92
2022-12-26T03:23:42.544Z,20.95
2022-12-26T03:26:41.073Z,19.25
2022-12-26T03:29:32.562Z,20.30
2022-12-26T03:32:00.885Z,21.23
2022-12-26T03:34:28.419Z,19.42
2022-12-26T03:37:07.898Z,20.60
2022-12-26T03:40:24.797Z,20.77
2022-12-26T03:43:18.781Z,19.10
2022-12-26T03:46:23.022Z,20.08
2022-12-26T03:49:14.225Z,19.45
2022-12-26T03:52:07.515Z,20.23
2022-12-26T03:55:06.003Z,20.63
2022-12-26T03:57:58.198Z,19.27
2022-12-26T04:00:46.326Z,19.77
2022-12-26T04:03:34.121Z,20.85
2022-12-26T04:06:22.642Z,18.27
2022-12-26T04:09:29.585Z,19.00
2022-12-26T04:12:17.089Z,17.77
2022-12-26T04:15:08.975Z,18.08
2022-12-26T04:18:04.564Z,18.08
2022-12-26T04:20:46.910Z,16.13
2022-12-26T04:23:47.708Z,16.58
2022-12-26T04:26:40.297Z,14.63
2022-12-26T04:29:25.662Z,15.65
2022-12-26T04:32:21.042Z,16.10
2022-12-26T04:35:15.037Z,14.95
2022-12-26T04:38:05.166Z,14.25
2022-12-26T04:40:56.944Z,14.25
2022-12-26T04:43:48.569Z,13.90
2022-12-26T04:46:20.759Z,13.38
2022-12-26T04:49:08.916Z,13.85
2022-12-26T04:51:36.460Z,13.07
2022-12-26T04:54:06.782Z,13.68
2022-12-26T04:56:33.815Z,14.73
2022-12-26T04:59:00.803Z,14.27
2022-12-26T05:01:46.261Z,14.10
2022-12-26T05:04:33.654Z,15.85
2022-12-26T05:07:20.906Z,14.95
2022-12-26T05:09:53.783Z,15.40
2022-12-26T05:12:21.579Z,15.48
2022-12-26T05:14:48.340Z,15.38
2022-12-26T05:17:34.136Z,15.55
2022-12-26T05:20:20.206Z,16.02
2022-12-26T05:23:06.006Z,17.02
2022-12-26T05:25:56.784Z,16.90
2022-12-26T05:31:37.188Z,17.33
2022-12-26T05:34:22.555Z,19.27
2022-12-26T05:37:03.476Z,19.35
2022-12-26T05:39:42.661Z,18.45
2022-12-26T05:42:09.976Z,20.05
2022-12-26T05:44:36.913Z,19.80
2022-12-26T05:47:04.069Z,19.15
2022-12-26T05:49:34.337Z,19.02
2022-12-26T05:52:01.135Z,19.55
2022-12-26T05:54:28.101Z,19.55
2022-12-26T05:56:55.104Z,18.38
2022-12-26T05:59:21.855Z,21.58
2022-12-26T06:01:49.054Z,19.92
2022-12-26T06:04:15.974Z,21.25
2022-12-26T06:06:42.819Z,20.75
2022-12-26T06:09:09.617Z,20.80
2022-12-26T06:11:36.389Z,20.33
2022-12-26T06:14:04.904Z,20.27
2022-12-26T06:16:31.986Z,21.85
2022-12-26T06:18:58.753Z,22.33
2022-12-26T06:21:26.447Z,20.92
2022-12-26T06:23:53.496Z,22.50
2022-12-26T06:26:20.721Z,21.50
2022-12-26T06:28:48.172Z,22.17
2022-12-26T06:31:21.638Z,21.70
2022-12-26T06:33:52.007Z,20.85
2022-12-26T06:36:22.692Z,21.63
2022-12-26T06:38:50.542Z,21.17
2022-12-26T06:41:19.012Z,23.40
2022-12-26T06:43:45.705Z,24.58
2022-12-26T06:46:19.951Z,23.45
2022-12-26T06:48:47.025Z,23.17
2022-12-26T06:51:17.008Z,23.35
2022-12-26T06:54:07.903Z,23.73
2022-12-26T06:59:19.290Z,23.27
2022-12-26T07:01:54.859Z,24.55
2022-12-26T07:04:21.762Z,23.25
2022-12-26T07:06:49.363Z,23.02
2022-12-26T07:09:18.555Z,23.80
2022-12-26T07:11:50.244Z,23.33
2022-12-26T07:14:35.107Z,23.77
2022-12-26T07:17:10.270Z,24.00
2022-12-26T07:19:38.241Z,24.25
2022-12-26T07:22:08.419Z,24.63
2022-12-26T07:24:35.453Z,24.55
2022-12-26T07:27:02.737Z,25.58
2022-12-26T07:29:29.570Z,26.08
2022-12-26T07:31:58.405Z,27.05
2022-12-26T07:34:31.609Z,27.05
2022-12-26T07:37:03.628Z,25.45
2022-12-26T07:39:34.140Z,27.95
2022-12-26T07:42:01.586Z,26.90
2022-12-26T07:44:30.691Z,26.85
2022-12-26T07:46:58.805Z,27.13
2022-12-26T07:49:26.095Z,26.63
2022-12-26T07:51:52.923Z,27.13
2022-12-26T07:54:19.758Z,27.42
2022-12-26T07:56:46.448Z,26.13
2022-12-26T07:59:17.101Z,25.55
2022-12-26T08:01:44.428Z,26.60
2022-12-26T08:04:12.593Z,25.40
2022-12-26T08:06:39.664Z,26.20
2022-12-26T08:09:06.736Z,26.25
2022-12-26T08:11:35.267Z,26.77
2022-12-26T08:14:02.318Z,24.52
2022-12-26T08:16:29.545Z,26.58
2022-12-26T08:18:56.278Z,25.30
2022-12-26T08:21:23.364Z,24.88
2022-12-26T08:23:50.344Z,23.58
2022-12-26T08:26:22.829Z,22.90
2022-12-26T08:28:51.727Z,21.73
2022-12-26T08:31:20.712Z,23.55
2022-12-26T08:33:48.595Z,22.73
2022-12-26T08:36:19.314Z,21.88
2022-12-26T08:38:46.724Z,20.20
2022-12-26T08:41:14.247Z,18.83
2022-12-26T08:46:28.019Z,19.42
2022-12-26T08:48:55.219Z,17.88
2022-12-26T08:51:25.203Z,17.88
2022-12-26T08:53:54.914Z,17.92
2022-12-26T08:56:24.777Z,18.17
2022-12-26T08:58:54.431Z,16.95
2022-12-26T09:01:23.449Z,17.05
2022-12-26T09:03:55.262Z,16.90
2022-12-26T09:06:23.071Z,17.63
2022-12-26T09:08:50.315Z,18.15
2022-12-26T09:11:20.044Z,22.70
2022-12-26T09:13:47.521Z,19.25
2022-12-26T09:16:21.498Z,17.92
2022-12-26T09:18:49.145Z,16.83
2022-12-26T09:21:16.397Z,16.42
2022-12-26T09:23:43.446Z,18.00
2022-12-26T09:26:12.791Z,17.95
2022-12-26T09:28:40.215Z,18.30
2022-12-26T09:31:15.776Z,19.65
2022-12-26T09:33:42.419Z,18.90
2022-12-26T09:36:14.712Z,16.48
2022-12-26T09:38:42.796Z,15.07
2022-12-26T09:41:15.354Z,17.65
2022-12-26T09:43:49.917Z,17.35
2022-12-26T09:46:32.930Z,17.20
2022-12-26T09:49:15.223Z,15.82
2022-12-26T09:51:46.890Z,13.55
2022-12-26T09:54:36.228Z,14.98
2022-12-26T09:57:15.253Z,13.40
2022-12-26T09:59:50.012Z,14.40
2022-12-26T10:02:23.407Z,14.57
2022-12-26T10:04:51.052Z,13.98
2022-12-26T10:07:27.145Z,13.05
2022-12-26T10:10:14.063Z,13.73
2022-12-26T10:13:05.077Z,13.95
2022-12-26T10:15:43.235Z,14.43
2022-12-26T10:18:15.777Z,12.77
2022-12-26T10:21:26.604Z,12.43
2022-12-26T10:24:24.294Z,13.23
2022-12-26T10:26:57.558Z,12.60
2022-12-26T10:29:52.819Z,13.02
2022-12-26T10:32:35.870Z,12.52
2022-12-26T10:35:30.135Z,12.68
2022-12-26T10:38:05.592Z,10.85
2022-12-26T10:40:39.447Z,10.68
2022-12-26T10:43:29.712Z,10.48
2022-12-26T10:46:26.470Z,9.95
2022-12-26T10:48:53.875Z,9.30
2022-12-26T10:51:20.518Z,8.70
2022-12-26T10:53:50.427Z,8.88
2022-12-26T10:56:18.450Z,8.07
2022-12-26T10:58:47.674Z,9.63
2022-12-26T11:01:53.147Z,7.65
2022-12-26T11:05:01.901Z,8.23
2022-12-26T11:07:12.939Z,10.05
2022-12-26T11:09:42.987Z,8.35
2022-12-26T11:12:44.131Z,8.35
2022-12-26T11:15:24.324Z,7.25
2022-12-26T11:17:53.577Z,8.25
2022-12-26T11:20:22.121Z,8.32
2022-12-26T11:22:52.205Z,7.47
2022-12-26T11:25:30.596Z,7.18
2022-12-26T11:28:20.283Z,7.50
2022-12-26T11:30:51.215Z,8.48
2022-12-26T11:33:23.862Z,10.68
2022-12-26T11:36:09.860Z,10.57
2022-12-26T11:38:51.329Z,9.00
2022-12-26T11:41:33.191Z,7.60
2022-12-26T11:44:21.128Z,7.38
2022-12-26T11:46:59.250Z,7.28
2022-12-26T11:49:34.303Z,6.05
2022-12-26T11:52:22.287Z,7.32
2022-12-26T11:54:50.757Z,6.45
2022-12-26T11:57:32.155Z,6.10
2022-12-26T12:00:22.256Z,6.32
2022-12-26T12:02:49.336Z,6.30
2022-12-26T12:05:37.826Z,5.05
2022-12-26T12:08:25.702Z,5.25
2022-12-26T12:11:04.416Z,4.40
2022-12-26T12:13:37.168Z,4.55
2022-12-26T12:16:38.078Z,4.82
2022-12-26T12:19:25.404Z,3.80
2022-12-26T12:22:16.371Z,2.03
2022-12-26T12:25:02.624Z,1.60
2022-12-26T12:27:47.468Z,1.17
2022-12-26T12:30:24.806Z,0.80
2022-12-26T12:33:21.318Z,0.80
2022-12-26T12:36:10.472Z,0.77
2022-12-26T12:39:00.613Z,0.50
2022-12-26T12:41:43.171Z,0.98
2022-12-26T12:44:35.833Z,1.30
2022-12-26T12:47:31.501Z,0.50
2022-12-26T12:50:37.748Z,0.60
2022-12-26T12:53:37.297Z,0.77
2022-12-26T12:56:25.519Z,0.60
2022-12-26T12:59:22.685Z,0.88
2022-12-26T13:02:08.532Z,0.70
2022-12-26T13:04:44.578Z,0.68
2022-12-26T13:07:31.320Z,0.75
2022-12-26T13:10:01.826Z,0.68
2022-12-26T13:12:37.164Z,0.70
2022-12-26T13:15:19.053Z,0.82
2022-12-26T13:18:14.085Z,0.47
2022-12-26T13:20:48.755Z,0.30
2022-12-26T13:23:49.892Z,0.60
2022-12-26T13:26:20.277Z,0.85
2022-12-26T13:29:04.658Z,0.70
2022-12-26T13:31:36.142Z,0.68
2022-12-26T13:34:04.316Z,0.52
2022-12-26T13:36:38.079Z,0.95
2022-12-26T13:39:07.821Z,0.50
2022-12-26T13:41:55.728Z,0.68
2022-12-26T13:44:22.975Z,0.50
2022-12-26T13:46:49.631Z,0.50
2022-12-26T13:49:37.225Z,0.68
2022-12-26T13:52:16.044Z,0.80
2022-12-26T13:54:48.798Z,0.60
2022-12-26T13:57:45.741Z,1.45
2022-12-26T14:00:42.371Z,2.58
2022-12-26T14:03:41.542Z,1.40
2022-12-26T14:06:23.722Z,8.27
2022-12-26T14:09:08.636Z,1.40
2022-12-26T14:11:49.802Z,0.60
2022-12-26T14:14:54.075Z,1.08
2022-12-26T14:17:41.155Z,0.80
2022-12-26T14:20:54.287Z,0.85
2022-12-26T14:23:56.277Z,0.95
2022-12-26T14:26:42.604Z,1.20
2022-12-26T14:29:38.080Z,1.95
2022-12-26T14:32:19.937Z,1.23
2022-12-26T14:35:14.193Z,1.50
2022-12-26T14:37:52.135Z,1.10
2022-12-26T14:40:18.998Z,0.90
2022-12-26T14:43:14.216Z,0.80
2022-12-26T14:45:53.175Z,0.90
2022-12-26T14:48:20.110Z,0.90
2022-12-26T14:50:48.610Z,1.27
2022-12-26T14:53:32.140Z,1.60
2022-12-26T14:56:07.996Z,1.15
2022-12-26T14:58:39.973Z,1.73
2022-12-26T15:01:09.994Z,1.17
2022-12-26T15:03:39.872Z,1.13
2022-12-26T15:06:19.028Z,1.35
2022-12-26T15:09:14.747Z,1.13
2022-12-26T15:12:19.168Z,1.50
2022-12-26T15:15:21.139Z,1.40
2022-12-26T15:18:03.898Z,1.65
2022-12-26T15:21:01.336Z,1.48
2022-12-26T15:23:41.574Z,2.33
2022-12-26T15:26:20.600Z,1.17
2022-12-26T15:29:16.100Z,1.52
2022-12-26T15:32:04.345Z,1.63
2022-12-26T15:35:01.296Z,2.63
2022-12-26T15:37:58.548Z,4.82
2022-12-26T15:40:52.138Z,8.98
2022-12-26T15:43:38.470Z,14.65
2022-12-26T15:46:27.740Z,20.55
2022-12-26T15:49:14.525Z,26.48
2022-12-26T15:52:00.770Z,7.13
2022-12-26T15:55:21.557Z,4.32
2022-12-26T15:58:31.201Z,6.43
2022-12-26T16:04:54.032Z,2.90
2022-12-26T16:07:39.402Z,2.60
2022-12-26T16:10:25.906Z,4.10
2022-12-26T16:13:14.728Z,2.60
2022-12-26T16:15:57.537Z,2.58
2022-12-26T16:18:33.029Z,2.67
2022-12-26T16:21:25.577Z,3.27
2022-12-26T16:23:54.301Z,3.17
2022-12-26T16:26:27.764Z,3.08
2022-12-26T16:28:56.378Z,3.50
2022-12-26T16:31:28.859Z,2.30
2022-12-26T16:33:58.905Z,2.73
2022-12-26T16:39:12.802Z,2.78
2022-12-26T16:42:04.915Z,1.70
2022-12-26T16:44:35.533Z,2.20
2022-12-26T16:47:09.511Z,2.55
2022-12-26T16:49:37.669Z,2.10
2022-12-26T16:52:07.515Z,1.80
2022-12-26T16:54:40.223Z,2.90
2022-12-26T16:57:19.608Z,2.63
2022-12-26T16:59:52.196Z,2.47
2022-12-26T17:02:26.523Z,3.23
2022-12-26T17:05:00.031Z,2.53
2022-12-26T17:07:27.921Z,2.93
2022-12-26T17:09:59.271Z,2.27
2022-12-26T17:12:32.656Z,2.60
2022-12-26T17:15:01.505Z,2.97
2022-12-26T17:17:37.961Z,4.00
2022-12-26T17:20:23.141Z,2.83
2022-12-26T17:22:54.311Z,2.70
2022-12-26T17:25:26.744Z,2.67
2022-12-26T17:28:12.491Z,2.57
2022-12-26T17:30:45.476Z,2.50
2022-12-26T17:33:11.985Z,2.40
2022-12-26T17:36:25.301Z,2.83
2022-12-26T17:38:28.079Z,2.88
2022-12-26T17:41:01.638Z,2.70
2022-12-26T17:43:34.927Z,2.05
2022-12-26T17:46:03.531Z,2.00
2022-12-26T17:48:30.319Z,2.23
2022-12-26T17:51:01.165Z,3.63
2022-12-26T17:53:40.353Z,2.40
2022-12-26T17:56:19.977Z,2.50
2022-12-26T17:58:47.606Z,2.13
2022-12-26T18:01:20.651Z,2.27
2022-12-26T18:03:48.278Z,2.37
2022-12-26T18:06:17.158Z,2.53
2022-12-26T18:08:44.411Z,2.30
2022-12-26T18:11:12.775Z,2.57
2022-12-26T18:13:40.110Z,2.10
2022-12-26T18:16:07.996Z,1.67
2022-12-26T18:18:34.830Z,2.30
2022-12-26T18:21:03.413Z,2.20
2022-12-26T18:23:30.099Z,1.70
2022-12-26T18:26:00.364Z,2.50
2022-12-26T18:28:27.896Z,1.90
2022-12-26T18:30:56.854Z,2.53
2022-12-26T18:33:23.605Z,2.23
2022-12-26T18:35:51.723Z,1.90
2022-12-26T18:38:20.648Z,2.50
2022-12-26T18:40:58.039Z,2.50
2022-12-26T18:43:25.079Z,2.20
2022-12-26T18:45:53.105Z,2.17
2022-12-26T18:48:20.243Z,3.97
2022-12-26T18:50:47.439Z,7.13
2022-12-26T18:53:14.185Z,4.07
2022-12-26T18:55:41.173Z,4.37
2022-12-26T18:58:08.318Z,2.23
2022-12-26T19:00:36.653Z,4.20
2022-12-26T19:03:05.100Z,9.20
2022-12-26T19:05:33.789Z,3.43
2022-12-26T19:08:01.972Z,8.93
2022-12-26T19:10:32.620Z,3.30
2022-12-26T19:13:05.866Z,5.03
2022-12-26T19:15:35.493Z,3.93
2022-12-26T19:18:04.210Z,5.20
2022-12-26T19:20:31.247Z,4.80
2022-12-26T19:22:58.159Z,5.70
2022-12-26T19:25:26.065Z,7.33
2022-12-26T19:27:53.235Z,10.40
2022-12-26T19:30:20.532Z,4.87
2022-12-26T19:32:47.724Z,8.37
2022-12-26T19:35:15.389Z,8.70
2022-12-26T19:37:44.760Z,10.80
2022-12-26T19:40:13.098Z,10.70
2022-12-26T19:42:39.740Z,2.83
2022-12-26T19:45:08.506Z,3.27
2022-12-26T19:47:35.839Z,3.27
2022-12-26T19:50:04.578Z,6.47
2022-12-26T19:52:31.261Z,5.77
2022-12-26T19:54:58.161Z,10.37
2022-12-26T19:57:24.865Z,9.50
2022-12-26T19:59:51.614Z,9.17
2022-12-26T20:02:26.440Z,4.70
2022-12-26T20:04:53.648Z,3.57
2022-12-26T20:07:20.341Z,7.50
2022-12-26T20:09:46.925Z,12.87
2022-12-26T20:12:13.696Z,6.70
2022-12-26T20:14:40.412Z,3.73
2022-12-26T20:17:09.459Z,3.43
2022-12-26T20:19:39.254Z,5.50
2022-12-26T20:22:07.236Z,2.63
2022-12-26T20:24:34.221Z,3.30
2022-12-26T20:27:01.919Z,4.83
2022-12-26T20:29:28.553Z,9.37
2022-12-26T20:31:55.439Z,5.93
2022-12-26T20:34:22.365Z,14.27
2022-12-26T20:36:49.182Z,7.37
2022-12-26T20:39:18.222Z,6.80
2022-12-26T20:41:45.619Z,2.13
2022-12-26T20:44:14.014Z,2.07
2022-12-26T20:46:41.702Z,2.07
2022-12-26T20:49:09.771Z,2.50
2022-12-26T20:51:38.878Z,2.67
2022-12-26T20:54:07.595Z,2.10
2022-12-26T20:56:35.745Z,2.60
2022-12-26T20:59:03.233Z,2.20
2022-12-26T21:01:30.326Z,2.10
2022-12-26T21:03:57.827Z,2.67
2022-12-26T21:06:27.842Z,2.40
2022-12-26T21:08:56.375Z,2.30
2022-12-26T21:11:29.603Z,1.90
2022-12-26T21:13:59.996Z,1.83
2022-12-26T21:16:38.250Z,2.07
2022-12-26T21:19:10.653Z,2.10
2022-12-26T21:21:43.599Z,1.63
2022-12-26T21:24:18.613Z,1.53
2022-12-26T21:26:46.785Z,1.60
2022-12-26T21:29:20.054Z,1.50
2022-12-26T21:31:47.940Z,1.37
2022-12-26T21:34:16.472Z,1.90
2022-12-26T21:37:02.883Z,1.90
2022-12-26T21:39:30.437Z,2.10
2022-12-26T21:41:57.215Z,2.10
2022-12-26T21:44:23.820Z,1.70
2022-12-26T21:46:50.520Z,2.13
2022-12-26T21:49:17.516Z,2.27
2022-12-26T21:51:44.310Z,1.27
2022-12-26T21:54:29.669Z,2.10
2022-12-26T21:56:56.411Z,2.20
2022-12-26T21:59:41.762Z,2.00
2022-12-26T22:02:33.401Z,2.33
2022-12-26T22:05:01.134Z,3.33
2022-12-26T22:07:29.089Z,3.03
2022-12-26T22:09:55.908Z,3.10
2022-12-26T22:12:41.262Z,1.80
2022-12-26T22:15:28.900Z,2.43
2022-12-26T22:17:55.955Z,1.97
2022-12-26T22:20:23.205Z,2.77
2022-12-26T22:22:50.163Z,1.50
2022-12-26T22:25:16.888Z,2.20
2022-12-26T22:27:43.565Z,1.70
2022-12-26T22:30:12.113Z,1.70
2022-12-26T22:32:38.921Z,2.20
2022-12-26T22:35:06.027Z,1.90
2022-12-26T22:37:32.647Z,1.40
2022-12-26T22:39:59.348Z,1.97
2022-12-26T22:42:25.951Z,1.70
2022-12-26T22:44:52.558Z,1.23
2022-12-26T22:47:19.298Z,1.53
2022-12-26T22:49:45.864Z,1.57
2022-12-26T22:52:15.844Z,1.83
2022-12-26T22:54:43.690Z,1.40
2022-12-26T22:57:10.376Z,1.77
2022-12-26T23:00:06.928Z,2.57
2022-12-26T23:02:24.414Z,1.50
2022-12-26T23:04:51.687Z,1.40
2022-12-26T23:07:20.856Z,1.83
2022-12-26T23:09:54.148Z,2.00
2022-12-26T23:12:39.717Z,1.43
2022-12-26T23:15:07.341Z,1.40
2022-12-26T23:17:56.555Z,1.30
2022-12-26T23:20:47.777Z,1.70
2022-12-26T23:23:14.932Z,1.80
2022-12-26T23:25:42.047Z,1.67
2022-12-26T23:28:29.073Z,1.80
2022-12-26T23:30:55.976Z,1.67
2022-12-26T23:33:23.250Z,1.47
2022-12-26T23:35:50.754Z,1.67
2022-12-26T23:38:17.558Z,2.13
2022-12-26T23:40:44.411Z,1.80
2022-12-26T23:43:11.134Z,1.20
2022-12-26T23:45:42.752Z,1.57
2022-12-26T23:48:10.825Z,1.40
2022-12-26T23:50:38.047Z,1.47
2022-12-26T23:53:05.324Z,1.77
2022-12-26T23:55:32.297Z,1.60
2022-12-26T23:57:59.057Z,1.50
